Time;durP1;ratioP1;P1;durP2;ratioP2;P2;SDS_P1;SDS_P2;PMS_P1;PMS_P2;Temp;Humidity;BMP_temperature;BMP_pressure;BME280_temperature;BME280_humidity;BME280_pressure;Samples;Min_cycle;Max_cycle;Signal;HPM_P1;HPM_P2
2022/08/29 00:00:26;;;;;;;47.27;16.33;;;;;;;;;;6144922;28;20027;-91
2022/08/29 00:03:27;;;;;;;64.53;17.43;;;;;;;;;;6146473;28;20514;-90
2022/08/29 00:06:27;;;;;;;45.40;15.30;;;;;;;;;;6146408;28;20046;-91
2022/08/29 00:09:27;;;;;;;36.30;15.03;;;;;;;;;;6146486;28;20011;-91
2022/08/29 00:12:28;;;;;;;44.13;16.33;;;;;;;;;;6145743;28;20022;-92
2022/08/29 00:15:29;;;;;;;53.10;15.87;;;;;;;;;;6147225;28;20023;-92
2022/08/29 00:18:30;;;;;;;52.20;17.48;;;;;;;;;;6146731;28;20027;-92
2022/08/29 00:21:31;;;;;;;40.13;16.47;;;;;;;;;;6146623;28;20403;-92
2022/08/29 00:24:31;;;;;;;40.27;18.90;;;;;;;;;;6146818;28;20023;-91
2022/08/29 00:27:33;;;;;;;46.53;16.20;;;;;;;;;;6147433;28;20053;-92
2022/08/29 00:30:34;;;;;;;51.53;19.70;;;;;;;;;;6144693;28;20031;-91
2022/08/29 00:33:34;;;;;;;46.87;17.80;;;;;;;;;;6147203;28;20617;-91
2022/08/29 00:36:35;;;;;;;44.03;18.93;;;;;;;;;;6146478;28;20376;-92
2022/08/29 00:39:37;;;;;;;60.45;23.73;;;;;;;;;;6148400;28;20031;-91
2022/08/29 00:42:40;;;;;;;57.72;20.02;;;;;;;;;;6148814;28;20483;-91
2022/08/29 00:45:55;;;;;;;52.10;23.83;;;;;;;;;;6146709;28;20043;-91
2022/08/29 00:48:57;;;;;;;44.70;16.77;;;;;;;;;;6135944;28;20102;-91
2022/08/29 00:52:02;;;;;;;51.42;22.40;;;;;;;;;;6142648;28;20011;-91
2022/08/29 00:55:05;;;;;;;51.53;20.15;;;;;;;;;;6146183;28;20023;-91
2022/08/29 00:58:14;;;;;;;61.60;21.58;;;;;;;;;;6149322;28;20050;-90
2022/08/29 01:01:15;;;;;;;62.05;20.80;;;;;;;;;;6143917;28;20033;-91
2022/08/29 01:04:15;;;;;;;54.77;22.20;;;;;;;;;;6146277;28;20031;-91
2022/08/29 01:07:15;;;;;;;55.90;21.20;;;;;;;;;;6146821;28;20574;-91
2022/08/29 01:13:38;;;;;;;81.72;24.15;;;;;;;;;;6147603;28;20047;-91
2022/08/29 01:16:38;;;;;;;77.63;24.58;;;;;;;;;;6142586;28;20063;-91
2022/08/29 01:19:44;;;;;;;74.00;24.63;;;;;;;;;;6144369;28;20031;-90
2022/08/29 01:23:00;;;;;;;63.22;25.40;;;;;;;;;;6150035;28;20122;-91
2022/08/29 01:26:01;;;;;;;52.60;21.50;;;;;;;;;;6150117;28;20770;-91
2022/08/29 01:29:01;;;;;;;76.97;27.08;;;;;;;;;;6149949;28;20110;-91
2022/08/29 01:32:02;;;;;;;48.37;20.53;;;;;;;;;;6150596;28;20114;-90
2022/08/29 01:35:03;;;;;;;46.53;21.43;;;;;;;;;;6150110;28;20035;-91
2022/08/29 01:38:03;;;;;;;46.75;19.83;;;;;;;;;;6149612;28;20070;-91
2022/08/29 01:41:04;;;;;;;49.20;21.47;;;;;;;;;;6150875;28;20027;-91
2022/08/29 01:44:16;;;;;;;58.47;20.60;;;;;;;;;;6144536;28;20023;-91
2022/08/29 01:47:16;;;;;;;59.20;24.75;;;;;;;;;;6150470;28;20028;-91
2022/08/29 01:50:16;;;;;;;58.33;21.13;;;;;;;;;;6150444;28;20390;-91
2022/08/29 01:53:17;;;;;;;55.20;22.57;;;;;;;;;;6149933;28;20472;-91
2022/08/29 01:56:22;;;;;;;57.30;23.43;;;;;;;;;;6152747;28;20019;-91
2022/08/29 01:59:26;;;;;;;65.80;22.92;;;;;;;;;;6150945;28;20767;-91
2022/08/29 02:02:27;;;;;;;59.97;22.55;;;;;;;;;;6134360;28;20046;-91
2022/08/29 02:05:28;;;;;;;59.15;22.95;;;;;;;;;;6145942;28;20475;-91
2022/08/29 02:08:29;;;;;;;71.72;26.92;;;;;;;;;;6150193;28;20495;-91
2022/08/29 02:11:29;;;;;;;50.57;22.97;;;;;;;;;;6145032;28;20026;-91
2022/08/29 02:14:29;;;;;;;57.43;22.53;;;;;;;;;;6148964;28;20019;-91
2022/08/29 02:17:29;;;;;;;52.70;24.57;;;;;;;;;;6148918;28;20042;-91
2022/08/29 02:20:31;;;;;;;63.97;25.07;;;;;;;;;;6149357;28;20102;-91
2022/08/29 02:23:33;;;;;;;53.40;23.23;;;;;;;;;;6149437;28;20111;-91
2022/08/29 02:26:33;;;;;;;67.40;24.92;;;;;;;;;;6147929;28;20074;-90
2022/08/29 02:29:33;;;;;;;51.23;22.33;;;;;;;;;;6156924;28;20026;-91
2022/08/29 02:32:33;;;;;;;74.13;22.80;;;;;;;;;;6155964;28;20057;-91
2022/08/29 02:35:34;;;;;;;75.17;21.20;;;;;;;;;;6168990;28;20026;-91
2022/08/29 02:38:35;;;;;;;48.63;21.70;;;;;;;;;;6154237;28;20030;-91
2022/08/29 02:41:35;;;;;;;102.73;25.83;;;;;;;;;;6156860;28;20023;-91
2022/08/29 02:44:35;;;;;;;55.10;21.93;;;;;;;;;;6172374;28;20027;-91
2022/08/29 02:47:35;;;;;;;55.87;25.13;;;;;;;;;;6156155;28;20079;-91
2022/08/29 02:50:39;;;;;;;71.33;24.37;;;;;;;;;;6156705;28;20014;-92
2022/08/29 02:53:39;;;;;;;48.97;21.33;;;;;;;;;;6155188;28;20022;-91
2022/08/29 02:56:40;;;;;;;47.13;22.67;;;;;;;;;;6156047;28;20015;-91
2022/08/29 02:59:41;;;;;;;56.15;23.17;;;;;;;;;;6155472;28;20050;-91
2022/08/29 03:02:42;;;;;;;109.50;28.27;;;;;;;;;;6151349;28;20019;-91
2022/08/29 03:05:42;;;;;;;67.25;27.38;;;;;;;;;;6156143;28;20023;-91
2022/08/29 03:08:42;;;;;;;65.13;25.57;;;;;;;;;;6156345;28;20023;-91
2022/08/29 03:11:43;;;;;;;66.83;20.57;;;;;;;;;;6153934;28;20022;-91
2022/08/29 03:14:43;;;;;;;49.40;24.07;;;;;;;;;;6155612;28;20026;-91
2022/08/29 03:17:44;;;;;;;50.30;22.83;;;;;;;;;;6155186;28;20015;-91
2022/08/29 03:20:44;;;;;;;66.50;22.85;;;;;;;;;;6146055;28;20023;-91
2022/08/29 03:23:45;;;;;;;67.40;21.87;;;;;;;;;;6154516;28;20030;-90
2022/08/29 03:26:45;;;;;;;87.60;29.83;;;;;;;;;;6156922;28;20039;-90
2022/08/29 03:29:45;;;;;;;51.40;21.50;;;;;;;;;;6156046;28;20476;-90
2022/08/29 03:32:47;;;;;;;51.37;22.87;;;;;;;;;;6156325;28;20029;-91
2022/08/29 03:35:47;;;;;;;66.25;26.55;;;;;;;;;;6151452;28;20747;-91
2022/08/29 03:38:47;;;;;;;89.07;27.40;;;;;;;;;;6156251;28;20018;-90
2022/08/29 03:41:47;;;;;;;77.40;28.27;;;;;;;;;;6172977;28;20046;-90
2022/08/29 03:44:48;;;;;;;61.17;22.53;;;;;;;;;;6149485;28;20027;-90
2022/08/29 03:47:49;;;;;;;80.70;26.07;;;;;;;;;;6168955;28;20002;-90
2022/08/29 03:50:50;;;;;;;;;;;;;;;;;;6173260;28;20007;-90
2022/08/29 03:53:50;;;;;;;80.35;25.17;;;;;;;;;;6155284;28;19906;-90
2022/08/29 03:56:50;;;;;;;84.80;29.57;;;;;;;;;;6155823;28;20011;-90
2022/08/29 03:59:50;;;;;;;142.43;30.73;;;;;;;;;;6155330;28;20078;-91
2022/08/29 04:02:53;;;;;;;75.25;25.52;;;;;;;;;;6174150;28;20026;-90
2022/08/29 04:05:54;;;;;;;57.03;22.67;;;;;;;;;;6155655;28;20030;-90
2022/08/29 04:08:54;;;;;;;98.30;27.10;;;;;;;;;;6155124;28;20015;-91
2022/08/29 04:11:54;;;;;;;64.40;22.27;;;;;;;;;;6150702;28;20497;-91
2022/08/29 04:14:56;;;;;;;108.38;25.20;;;;;;;;;;6169893;28;20168;-91
2022/08/29 04:17:58;;;;;;;77.72;22.63;;;;;;;;;;6153516;28;20470;-90
2022/08/29 04:21:02;;;;;;;76.53;24.20;;;;;;;;;;6168177;28;20045;-90
2022/08/29 04:24:02;;;;;;;65.63;26.40;;;;;;;;;;6172301;28;20027;-90
2022/08/29 04:27:02;;;;;;;47.57;19.83;;;;;;;;;;6155117;28;20121;-90
2022/08/29 04:30:07;;;;;;;96.57;25.27;;;;;;;;;;6154690;28;20470;-90
2022/08/29 04:33:07;;;;;;;97.13;29.10;;;;;;;;;;6148635;28;20031;-90
2022/08/29 04:36:07;;;;;;;96.67;29.60;;;;;;;;;;6154209;28;20453;-91
2022/08/29 04:39:08;;;;;;;114.18;28.58;;;;;;;;;;6171666;28;20404;-89
2022/08/29 04:42:09;;;;;;;118.40;28.53;;;;;;;;;;6168985;28;20039;-91
2022/08/29 04:45:13;;;;;;;87.90;27.07;;;;;;;;;;6147065;28;20031;-89
2022/08/29 04:48:13;;;;;;;77.60;23.77;;;;;;;;;;6172627;28;20525;-90
2022/08/29 04:51:13;;;;;;;56.23;20.03;;;;;;;;;;6154876;28;20030;-89
2022/08/29 04:54:13;;;;;;;43.90;16.57;;;;;;;;;;6155072;28;20019;-89
2022/08/29 04:57:14;;;;;;;62.57;22.03;;;;;;;;;;6158958;28;20049;-90
2022/08/29 05:00:17;;;;;;;54.97;23.87;;;;;;;;;;6159567;28;20034;-90
2022/08/29 05:03:18;;;;;;;48.55;22.05;;;;;;;;;;6158697;28;20034;-89
2022/08/29 05:06:20;;;;;;;72.15;23.40;;;;;;;;;;6158906;28;20116;-90
2022/08/29 05:09:20;;;;;;;105.28;26.20;;;;;;;;;;6158721;28;20114;-89
2022/08/29 05:12:21;;;;;;;39.73;18.07;;;;;;;;;;6176120;28;20431;-89
2022/08/29 05:15:21;;;;;;;47.90;19.60;;;;;;;;;;6175860;28;20055;-89
2022/08/29 05:18:22;;;;;;;66.37;22.33;;;;;;;;;;6158877;28;20030;-89
2022/08/29 05:21:26;;;;;;;53.03;21.57;;;;;;;;;;6156972;28;20027;-89
2022/08/29 05:24:27;;;;;;;43.97;21.15;;;;;;;;;;6174733;28;20026;-89
2022/08/29 05:27:27;;;;;;;83.50;27.37;;;;;;;;;;6158071;28;20046;-89
2022/08/29 05:30:27;;;;;;;92.47;22.73;;;;;;;;;;6155274;28;20029;-89
2022/08/29 05:33:28;;;;;;;46.50;20.70;;;;;;;;;;6152525;28;20027;-88
2022/08/29 05:36:28;;;;;;;83.13;22.30;;;;;;;;;;6145485;28;20111;-88
2022/08/29 05:39:28;;;;;;;61.23;21.77;;;;;;;;;;6157940;28;20027;-88
2022/08/29 05:42:28;;;;;;;78.53;19.77;;;;;;;;;;6173104;28;20406;-88
2022/08/29 05:45:29;;;;;;;37.77;15.67;;;;;;;;;;6156965;28;20027;-88
2022/08/29 05:48:30;;;;;;;47.83;17.33;;;;;;;;;;6157086;28;20077;-88
2022/08/29 05:51:31;;;;;;;41.95;16.73;;;;;;;;;;6157833;28;20023;-88
2022/08/29 05:54:31;;;;;;;;;;;;;;;;;;6157728;28;20031;-88
2022/08/29 05:57:32;;;;;;;37.60;17.20;;;;;;;;;;6156002;28;19918;-88
2022/08/29 06:00:32;;;;;;;35.00;17.63;;;;;;;;;;6156612;28;20023;-89
2022/08/29 06:03:32;;;;;;;38.33;19.57;;;;;;;;;;6151514;28;20486;-88
2022/08/29 06:06:32;;;;;;;33.43;16.53;;;;;;;;;;6139114;28;20065;-88
2022/08/29 06:09:34;;;;;;;31.83;16.77;;;;;;;;;;6153934;28;20051;-88
2022/08/29 06:12:34;;;;;;;31.55;16.60;;;;;;;;;;6149177;28;20078;-89
2022/08/29 06:15:35;;;;;;;23.50;13.37;;;;;;;;;;6153227;28;20113;-89
2022/08/29 06:18:35;;;;;;;28.43;16.27;;;;;;;;;;6156551;28;20019;-89
2022/08/29 06:21:35;;;;;;;28.10;13.77;;;;;;;;;;6166889;28;20142;-89
2022/08/29 06:24:36;;;;;;;27.60;13.37;;;;;;;;;;6173852;28;20031;-89
2022/08/29 06:27:36;;;;;;;25.10;14.95;;;;;;;;;;6155643;28;20055;-89
2022/08/29 06:30:36;;;;;;;25.53;13.80;;;;;;;;;;6150416;28;20031;-89
2022/08/29 06:33:37;;;;;;;23.87;12.40;;;;;;;;;;6149846;28;20014;-89
2022/08/29 06:36:37;;;;;;;25.53;11.40;;;;;;;;;;6164063;28;20030;-89
2022/08/29 06:39:38;;;;;;;31.30;12.60;;;;;;;;;;6173311;28;20023;-89
2022/08/29 06:42:38;;;;;;;32.90;12.83;;;;;;;;;;6166263;28;20022;-89
2022/08/29 06:45:39;;;;;;;22.60;10.67;;;;;;;;;;6154768;28;20016;-89
2022/08/29 06:48:39;;;;;;;17.85;10.73;;;;;;;;;;6153521;28;20588;-89
2022/08/29 06:51:40;;;;;;;22.40;10.37;;;;;;;;;;6146124;28;20081;-88
2022/08/29 06:54:40;;;;;;;29.35;11.40;;;;;;;;;;6165984;28;20014;-90
2022/08/29 06:57:43;;;;;;;20.83;10.57;;;;;;;;;;6166830;28;20497;-89
2022/08/29 07:00:44;;;;;;;18.67;10.27;;;;;;;;;;6149355;28;20027;-89
2022/08/29 07:03:44;;;;;;;20.75;9.35;;;;;;;;;;6149409;28;20023;-89
2022/08/29 07:06:44;;;;;;;18.42;11.00;;;;;;;;;;6166905;28;20018;-89
2022/08/29 07:09:45;;;;;;;23.10;10.83;;;;;;;;;;6155779;28;20440;-89
2022/08/29 07:12:45;;;;;;;19.00;12.43;;;;;;;;;;6160734;28;20019;-89
2022/08/29 07:15:45;;;;;;;19.83;11.00;;;;;;;;;;6164625;28;20047;-89
2022/08/29 07:18:45;;;;;;;28.58;12.07;;;;;;;;;;6167307;28;20026;-89
2022/08/29 07:21:47;;;;;;;26.97;11.63;;;;;;;;;;6146291;28;20083;-89
2022/08/29 07:24:47;;;;;;;32.63;12.55;;;;;;;;;;6146156;28;20386;-89
2022/08/29 07:27:48;;;;;;;25.67;11.25;;;;;;;;;;6149804;28;20062;-89
2022/08/29 07:30:48;;;;;;;25.77;13.10;;;;;;;;;;6172043;28;20050;-89
2022/08/29 07:33:48;;;;;;;21.40;12.63;;;;;;;;;;6154403;28;20021;-89
2022/08/29 07:36:49;;;;;;;28.40;12.57;;;;;;;;;;6153449;28;20084;-89
2022/08/29 07:39:49;;;;;;;26.30;16.10;;;;;;;;;;6171547;28;20026;-89
2022/08/29 07:42:49;;;;;;;29.50;16.37;;;;;;;;;;6154456;28;20437;-89
2022/08/29 07:45:49;;;;;;;29.07;17.30;;;;;;;;;;6154248;28;20023;-88
2022/08/29 07:48:51;;;;;;;32.17;18.30;;;;;;;;;;6147185;28;20049;-87
2022/08/29 07:51:52;;;;;;;35.03;19.10;;;;;;;;;;6146829;28;20011;-87
2022/08/29 07:54:52;;;;;;;26.20;15.02;;;;;;;;;;6147665;28;20026;-87
2022/08/29 07:57:52;;;;;;;30.00;16.80;;;;;;;;;;6163744;28;20383;-88
2022/08/29 08:00:53;;;;;;;25.40;13.87;;;;;;;;;;6165246;28;20233;-88
2022/08/29 08:03:53;;;;;;;34.78;17.77;;;;;;;;;;6151384;28;20509;-88
2022/08/29 08:06:53;;;;;;;27.43;15.40;;;;;;;;;;6169132;28;20027;-86
2022/08/29 08:09:53;;;;;;;27.53;13.80;;;;;;;;;;6161588;28;20019;-86
2022/08/29 08:12:53;;;;;;;24.23;13.70;;;;;;;;;;6170341;28;20030;-88
2022/08/29 08:15:54;;;;;;;;;;;;;;;;;;6147983;28;20031;-88
2022/08/29 08:18:55;;;;;;;24.05;13.68;;;;;;;;;;6165428;28;19997;-88
2022/08/29 08:21:55;;;;;;;;;;;;;;;;;;6152030;28;20063;-89
2022/08/29 08:24:55;;;;;;;23.50;12.43;;;;;;;;;;6151532;28;20377;-89
2022/08/29 08:27:55;;;;;;;;;;;;;;;;;;6165115;28;20134;-89
2022/08/29 08:30:57;;;;;;;18.33;10.68;;;;;;;;;;6157475;28;19906;-88
2022/08/29 08:33:57;;;;;;;21.02;11.18;;;;;;;;;;6158081;28;20026;-88
2022/08/29 08:36:57;;;;;;;;;;;;;;;;;;6159408;28;20489;-89
2022/08/29 08:39:58;;;;;;;18.85;12.18;;;;;;;;;;6170170;28;20384;-89
2022/08/29 08:42:59;;;;;;;;;;;;;;;;;;6158744;28;20391;-88
2022/08/29 08:45:59;;;;;;;23.60;12.18;;;;;;;;;;6170476;28;19977;-88
2022/08/29 08:49:00;;;;;;;;;;;;;;;;;;6167362;28;20095;-88
2022/08/29 08:52:14;;;;;;;18.98;10.88;;;;;;;;;;6157890;28;19921;-88
2022/08/29 08:55:30;;;;;;;21.70;12.80;;;;;;;;;;6150606;28;20030;-88
2022/08/29 08:58:32;;;;;;;24.83;12.73;;;;;;;;;;6171188;28;20058;-88
2022/08/29 09:01:44;;;;;;;24.58;13.48;;;;;;;;;;6157501;28;20483;-88
2022/08/29 09:04:59;;;;;;;24.83;11.98;;;;;;;;;;6153839;28;20019;-88
2022/08/29 09:08:40;;;;;;;23.35;11.10;;;;;;;;;;6145188;28;20394;-88
2022/08/29 09:11:40;;;;;;;17.58;10.73;;;;;;;;;;6113260;29;20941;-88
2022/08/29 09:14:46;;;;;;;19.08;10.88;;;;;;;;;;6106394;29;20055;-88
2022/08/29 09:18:05;;;;;;;20.88;9.88;;;;;;;;;;6164236;28;20121;-88
2022/08/29 09:21:09;;;;;;;16.42;9.82;;;;;;;;;;6156566;28;20029;-88
2022/08/29 09:24:13;;;;;;;15.05;8.93;;;;;;;;;;6152417;28;20105;-88
2022/08/29 09:27:21;;;;;;;19.02;9.77;;;;;;;;;;6166650;28;20130;-88
2022/08/29 09:30:23;;;;;;;17.05;11.77;;;;;;;;;;6173598;28;20047;-88
2022/08/29 09:33:38;;;;;;;19.05;11.38;;;;;;;;;;6163489;28;20082;-88
2022/08/29 09:36:40;;;;;;;15.45;9.80;;;;;;;;;;6153542;28;20434;-88
2022/08/29 09:39:50;;;;;;;16.40;9.82;;;;;;;;;;6175121;28;20038;-88
2022/08/29 09:42:58;;;;;;;14.90;9.60;;;;;;;;;;6172541;28;20050;-88
2022/08/29 09:46:10;;;;;;;17.17;8.85;;;;;;;;;;6172600;28;20026;-87
2022/08/29 09:49:13;;;;;;;20.45;10.98;;;;;;;;;;6156607;28;20077;-88
2022/08/29 09:52:15;;;;;;;15.68;8.60;;;;;;;;;;6173195;28;20578;-88
2022/08/29 09:55:17;;;;;;;14.88;9.60;;;;;;;;;;6150441;28;20085;-88
2022/08/29 09:58:20;;;;;;;12.85;9.07;;;;;;;;;;6141312;28;20048;-88
2022/08/29 10:01:20;;;;;;;14.18;8.63;;;;;;;;;;6146145;28;20517;-88
2022/08/29 10:04:37;;;;;;;14.50;8.77;;;;;;;;;;6165654;28;20105;-88
2022/08/29 10:07:48;;;;;;;19.60;11.25;;;;;;;;;;6170866;28;20483;-88
2022/08/29 10:10:54;;;;;;;19.10;13.17;;;;;;;;;;6151948;28;20489;-88
2022/08/29 10:14:14;;;;;;;21.27;14.35;;;;;;;;;;6154206;28;20543;-88
2022/08/29 10:20:49;;;;;;;16.58;9.95;;;;;;;;;;6162808;28;20027;-87
2022/08/29 10:24:07;;;;;;;17.60;9.25;;;;;;;;;;6167851;28;20023;-88
2022/08/29 10:27:08;;;;;;;17.42;9.00;;;;;;;;;;6167795;28;20141;-88
2022/08/29 10:30:14;;;;;;;21.80;12.20;;;;;;;;;;6174613;28;20034;-88
2022/08/29 10:33:28;;;;;;;17.90;9.43;;;;;;;;;;6156162;28;20061;-89
2022/08/29 10:36:31;;;;;;;14.48;9.40;;;;;;;;;;6151235;28;20372;-88
2022/08/29 10:39:38;;;;;;;14.57;10.00;;;;;;;;;;6169296;28;20538;-88
2022/08/29 10:42:40;;;;;;;19.98;10.02;;;;;;;;;;6153254;28;20026;-88
2022/08/29 10:45:58;;;;;;;13.27;8.05;;;;;;;;;;6163557;28;20069;-87
2022/08/29 10:49:06;;;;;;;10.93;6.38;;;;;;;;;;6149115;28;20090;-88
2022/08/29 10:52:12;;;;;;;9.35;6.85;;;;;;;;;;6157436;28;20011;-88
2022/08/29 10:55:15;;;;;;;15.18;6.88;;;;;;;;;;6147996;28;20514;-88
2022/08/29 10:58:15;;;;;;;10.75;6.28;;;;;;;;;;6163879;28;20022;-88
2022/08/29 11:01:36;;;;;;;12.53;8.80;;;;;;;;;;6153350;28;20030;-88
2022/08/29 11:04:37;;;;;;;17.70;8.87;;;;;;;;;;6132359;28;20130;-88
2022/08/29 11:07:44;;;;;;;8.93;6.10;;;;;;;;;;6136771;28;20118;-88
2022/08/29 11:10:48;;;;;;;15.85;7.85;;;;;;;;;;6163435;28;20014;-88
2022/08/29 11:13:51;;;;;;;11.68;5.90;;;;;;;;;;6152993;28;20034;-88
2022/08/29 11:16:53;;;;;;;12.77;7.97;;;;;;;;;;6174622;28;20058;-87
2022/08/29 11:19:57;;;;;;;15.07;9.38;;;;;;;;;;6155016;28;20023;-87
2022/08/29 11:23:04;;;;;;;16.00;10.48;;;;;;;;;;6174575;28;20073;-87
2022/08/29 11:26:15;;;;;;;13.45;9.15;;;;;;;;;;6157687;28;20228;-87
2022/08/29 11:29:18;;;;;;;8.50;5.18;;;;;;;;;;6174200;28;20081;-87
2022/08/29 11:32:18;;;;;;;7.72;5.20;;;;;;;;;;6152287;28;20041;-88
2022/08/29 11:35:32;;;;;;;9.07;5.83;;;;;;;;;;6156343;28;20019;-87
2022/08/29 11:38:44;;;;;;;10.70;4.97;;;;;;;;;;6172493;28;20042;-87
2022/08/29 11:41:47;;;;;;;16.17;6.88;;;;;;;;;;6167988;28;20115;-87
2022/08/29 11:44:50;;;;;;;8.00;4.57;;;;;;;;;;6166273;28;20068;-88
2022/08/29 11:48:01;;;;;;;9.70;3.95;;;;;;;;;;6167035;28;20015;-89
2022/08/29 11:51:20;;;;;;;7.45;4.22;;;;;;;;;;6153656;28;20015;-88
2022/08/29 11:54:23;;;;;;;8.95;4.68;;;;;;;;;;6152908;28;20022;-88
2022/08/29 11:57:47;;;;;;;9.35;5.75;;;;;;;;;;6153951;28;20109;-88
2022/08/29 12:00:50;;;;;;;13.85;7.78;;;;;;;;;;6156089;28;20039;-88
2022/08/29 12:03:51;;;;;;;9.65;5.72;;;;;;;;;;6173021;28;20015;-85
2022/08/29 12:06:55;;;;;;;8.80;5.05;;;;;;;;;;6147377;28;20153;-87
2022/08/29 12:09:56;;;;;;;12.70;6.55;;;;;;;;;;6153929;28;20021;-88
2022/08/29 12:12:58;;;;;;;10.73;5.07;;;;;;;;;;6153229;28;20023;-87
2022/08/29 12:16:04;;;;;;;12.85;5.60;;;;;;;;;;6170286;28;20502;-87
2022/08/29 12:19:06;;;;;;;11.75;6.72;;;;;;;;;;6171796;28;20026;-86
2022/08/29 12:22:06;;;;;;;8.85;5.13;;;;;;;;;;6150698;28;20027;-86
2022/08/29 12:25:19;;;;;;;9.87;5.40;;;;;;;;;;6150517;28;20037;-86
2022/08/29 12:28:40;;;;;;;9.48;5.93;;;;;;;;;;6160154;28;20050;-86
2022/08/29 12:31:49;;;;;;;7.75;5.40;;;;;;;;;;6166398;28;20058;-86
2022/08/29 12:35:01;;;;;;;11.43;5.50;;;;;;;;;;6159686;28;20464;-86
2022/08/29 12:38:08;;;;;;;7.38;4.93;;;;;;;;;;6159279;28;20035;-86
2022/08/29 12:41:14;;;;;;;11.50;4.95;;;;;;;;;;6164694;28;20022;-87
2022/08/29 12:44:16;;;;;;;6.10;4.57;;;;;;;;;;6147901;28;20019;-87
2022/08/29 12:47:23;;;;;;;13.13;5.22;;;;;;;;;;6151291;28;20019;-87
2022/08/29 12:50:25;;;;;;;8.05;3.70;;;;;;;;;;6163892;28;20419;-86
2022/08/29 12:53:28;;;;;;;9.45;3.97;;;;;;;;;;6165893;28;20047;-86
2022/08/29 12:56:29;;;;;;;10.07;4.70;;;;;;;;;;6162087;28;20055;-87
2022/08/29 12:59:29;;;;;;;11.15;4.25;;;;;;;;;;6147738;28;20030;-87
2022/08/29 13:02:36;;;;;;;10.80;5.67;;;;;;;;;;6157717;28;20029;-87
2022/08/29 13:05:38;;;;;;;7.47;3.80;;;;;;;;;;6149988;28;20081;-86
2022/08/29 13:08:38;;;;;;;9.20;4.22;;;;;;;;;;6170339;28;20030;-87
2022/08/29 13:11:38;;;;;;;9.57;4.93;;;;;;;;;;6171849;28;20023;-87
2022/08/29 13:14:49;;;;;;;10.13;4.63;;;;;;;;;;6170529;28;20334;-87
2022/08/29 13:17:49;;;;;;;9.80;3.95;;;;;;;;;;6149441;28;20250;-86
2022/08/29 13:20:50;;;;;;;;;;;;;;;;;;6150990;28;20015;-86
2022/08/29 13:24:01;;;;;;;9.10;4.47;;;;;;;;;;6153265;28;19910;-86
2022/08/29 13:27:01;;;;;;;7.78;3.75;;;;;;;;;;6164463;28;20046;-86
2022/08/29 13:30:02;;;;;;;4.93;2.63;;;;;;;;;;6144817;28;20027;-86
2022/08/29 13:33:02;;;;;;;7.27;3.33;;;;;;;;;;6154587;28;20011;-86
2022/08/29 13:36:25;;;;;;;5.97;2.57;;;;;;;;;;6173634;28;20413;-86
2022/08/29 13:39:28;;;;;;;6.47;2.97;;;;;;;;;;6115246;28;20430;-86
2022/08/29 13:42:30;;;;;;;8.93;2.55;;;;;;;;;;6149989;28;20118;-87
2022/08/29 13:45:31;;;;;;;6.53;2.70;;;;;;;;;;6169332;28;20011;-85
2022/08/29 13:48:31;;;;;;;12.65;3.15;;;;;;;;;;6171739;28;20364;-85
2022/08/29 13:51:32;;;;;;;7.40;2.45;;;;;;;;;;6172729;28;20023;-84
2022/08/29 13:54:33;;;;;;;5.28;2.80;;;;;;;;;;6173301;28;20023;-85
2022/08/29 13:57:33;;;;;;;9.55;2.60;;;;;;;;;;6173711;28;20026;-84
2022/08/29 14:00:34;;;;;;;7.50;2.40;;;;;;;;;;6157108;28;20025;-85
2022/08/29 14:03:34;;;;;;;5.15;2.03;;;;;;;;;;6172864;28;20022;-84
2022/08/29 14:06:34;;;;;;;5.27;2.53;;;;;;;;;;6171804;28;20390;-84
2022/08/29 14:09:36;;;;;;;8.03;2.83;;;;;;;;;;6174063;28;20039;-85
2022/08/29 14:12:36;;;;;;;6.60;2.85;;;;;;;;;;6149189;28;20259;-85
2022/08/29 14:15:37;;;;;;;6.53;2.90;;;;;;;;;;6168269;28;20022;-85
2022/08/29 14:18:37;;;;;;;11.00;2.65;;;;;;;;;;6173869;28;20022;-85
2022/08/29 14:21:37;;;;;;;8.43;2.83;;;;;;;;;;6173757;28;20019;-85
2022/08/29 14:24:39;;;;;;;6.70;2.50;;;;;;;;;;6173474;28;20027;-85
2022/08/29 14:27:39;;;;;;;8.70;2.42;;;;;;;;;;6172527;28;20117;-85
2022/08/29 14:30:39;;;;;;;4.63;2.10;;;;;;;;;;6151787;28;20026;-85
2022/08/29 14:33:40;;;;;;;;;;;;;;;;;;6170332;28;20280;-86
2022/08/29 14:36:40;;;;;;;6.10;3.03;;;;;;;;;;6155745;28;20052;-88
2022/08/29 14:39:40;;;;;;;;;;;;;;;;;;6174469;28;20467;-85
2022/08/29 14:42:40;;;;;;;4.97;2.47;;;;;;;;;;6174036;28;19906;-85
2022/08/29 14:45:40;;;;;;;9.23;3.00;;;;;;;;;;6155530;28;20178;-85
2022/08/29 14:48:41;;;;;;;6.63;2.37;;;;;;;;;;6155601;28;20105;-85
2022/08/29 14:51:43;;;;;;;;;;;;;;;;;;6156166;28;20057;-85
2022/08/29 14:54:43;;;;;;;6.28;2.67;;;;;;;;;;6164494;28;19937;-85
2022/08/29 14:57:43;;;;;;;;;;;;;;;;;;6169060;28;20011;-85
2022/08/29 15:00:43;;;;;;;6.25;3.10;;;;;;;;;;6170567;28;19910;-85
2022/08/29 15:03:43;;;;;;;;;;;;;;;;;;6171987;28;20019;-85
2022/08/29 15:06:44;;;;;;;6.35;2.55;;;;;;;;;;6154959;28;19914;-85
2022/08/29 15:09:44;;;;;;;3.93;2.13;;;;;;;;;;6149193;28;20086;-85
2022/08/29 15:12:44;;;;;;;8.60;3.60;;;;;;;;;;6149204;28;20470;-85
2022/08/29 15:15:45;;;;;;;5.30;2.47;;;;;;;;;;6154404;28;20077;-85
2022/08/29 15:18:45;;;;;;;11.67;2.90;;;;;;;;;;6154367;28;20015;-85
2022/08/29 15:21:45;;;;;;;5.95;3.22;;;;;;;;;;6146219;28;20027;-85
2022/08/29 15:24:46;;;;;;;11.90;3.80;;;;;;;;;;6165894;28;20054;-86
2022/08/29 15:27:46;;;;;;;10.10;3.10;;;;;;;;;;6172000;28;20042;-86
2022/08/29 15:30:47;;;;;;;4.47;3.20;;;;;;;;;;6172478;28;20424;-84
2022/08/29 15:33:47;;;;;;;8.20;3.10;;;;;;;;;;6154342;28;20010;-84
2022/08/29 15:36:47;;;;;;;5.90;2.30;;;;;;;;;;6171710;28;20018;-84
2022/08/29 15:39:49;;;;;;;7.03;2.67;;;;;;;;;;6172482;28;20015;-84
2022/08/29 15:42:49;;;;;;;4.93;2.50;;;;;;;;;;6154881;28;20034;-84
2022/08/29 15:45:49;;;;;;;9.23;2.60;;;;;;;;;;6171198;28;20490;-85
2022/08/29 15:48:50;;;;;;;7.47;2.50;;;;;;;;;;6170791;28;20019;-84
2022/08/29 15:51:50;;;;;;;6.37;2.70;;;;;;;;;;6144980;28;20022;-84
2022/08/29 15:54:51;;;;;;;9.57;2.53;;;;;;;;;;6155009;28;20018;-84
2022/08/29 15:57:51;;;;;;;9.27;2.23;;;;;;;;;;6168034;28;20514;-84
2022/08/29 16:00:51;;;;;;;7.33;2.50;;;;;;;;;;6148080;28;20029;-84
2022/08/29 16:03:52;;;;;;;12.03;3.00;;;;;;;;;;6166114;28;20054;-83
2022/08/29 16:06:52;;;;;;;10.90;3.47;;;;;;;;;;6160594;28;20023;-84
2022/08/29 16:09:52;;;;;;;7.23;2.80;;;;;;;;;;6148216;28;20069;-84
2022/08/29 16:12:52;;;;;;;7.53;2.83;;;;;;;;;;6150640;28;20483;-84
2022/08/29 16:15:52;;;;;;;9.53;2.83;;;;;;;;;;6149232;28;20054;-84
2022/08/29 16:18:53;;;;;;;10.00;3.63;;;;;;;;;;6151948;28;20035;-84
2022/08/29 16:21:58;;;;;;;7.35;3.10;;;;;;;;;;6154252;28;20486;-84
2022/08/29 16:24:58;;;;;;;6.38;2.47;;;;;;;;;;6152248;28;20027;-84
2022/08/29 16:27:59;;;;;;;8.53;3.27;;;;;;;;;;6171457;28;20078;-84
2022/08/29 16:31:00;;;;;;;9.25;3.63;;;;;;;;;;6153714;28;20461;-84
2022/08/29 16:34:00;;;;;;;6.23;3.40;;;;;;;;;;6170840;28;20038;-84
2022/08/29 16:37:00;;;;;;;8.50;3.67;;;;;;;;;;6153732;28;20027;-84
2022/08/29 16:40:03;;;;;;;4.80;2.63;;;;;;;;;;6154529;28;20398;-84
2022/08/29 16:43:03;;;;;;;8.05;2.78;;;;;;;;;;6172018;28;20094;-84
2022/08/29 16:46:04;;;;;;;7.23;2.77;;;;;;;;;;6153505;28;20471;-84
2022/08/29 16:49:04;;;;;;;6.22;2.47;;;;;;;;;;6153347;28;20416;-84
2022/08/29 16:52:05;;;;;;;9.80;3.10;;;;;;;;;;6174123;28;20015;-84
2022/08/29 16:55:06;;;;;;;7.63;2.70;;;;;;;;;;6176653;28;20398;-83
2022/08/29 17:01:39;;;;;;;6.00;2.35;;;;;;;;;;6173251;28;20117;-83
2022/08/29 17:04:40;;;;;;;7.40;2.63;;;;;;;;;;6169099;28;20101;-83
2022/08/29 17:16:42;;;;;;;9.53;3.37;;;;;;;;;;6171028;28;20027;-83
2022/08/29 17:19:43;;;;;;;9.20;3.40;;;;;;;;;;6148267;28;20039;-83
2022/08/29 17:22:43;;;;;;;10.60;3.43;;;;;;;;;;6163428;28;20564;-83
2022/08/29 17:25:44;;;;;;;8.68;3.35;;;;;;;;;;6143977;28;20077;-83
2022/08/29 17:28:45;;;;;;;6.97;2.80;;;;;;;;;;6150724;28;20062;-83
2022/08/29 17:31:45;;;;;;;8.73;3.97;;;;;;;;;;6160778;28;20031;-82
2022/08/29 17:34:46;;;;;;;9.63;3.70;;;;;;;;;;6160244;28;20022;-83
2022/08/29 17:37:48;;;;;;;6.60;3.88;;;;;;;;;;6175478;28;20074;-83
2022/08/29 17:40:52;;;;;;;8.60;3.58;;;;;;;;;;6171142;28;20030;-84
2022/08/29 17:43:53;;;;;;;6.35;3.63;;;;;;;;;;6157221;28;20035;-83
2022/08/29 17:46:53;;;;;;;8.33;4.00;;;;;;;;;;6152764;28;20044;-83
2022/08/29 17:49:54;;;;;;;9.38;3.95;;;;;;;;;;6173206;28;20024;-83
2022/08/29 17:52:54;;;;;;;7.27;3.90;;;;;;;;;;6175462;28;20019;-84
2022/08/29 17:55:54;;;;;;;7.93;3.13;;;;;;;;;;6174806;28;20379;-84
2022/08/29 17:58:55;;;;;;;9.70;4.97;;;;;;;;;;6156994;28;20038;-84
2022/08/29 18:01:56;;;;;;;8.50;4.57;;;;;;;;;;6171826;28;20446;-84
2022/08/29 18:04:56;;;;;;;11.50;5.30;;;;;;;;;;6174056;28;20078;-84
2022/08/29 18:07:56;;;;;;;8.17;4.23;;;;;;;;;;6150649;28;20502;-84
2022/08/29 18:10:57;;;;;;;8.30;3.70;;;;;;;;;;6173889;28;20018;-83
2022/08/29 18:13:57;;;;;;;12.00;6.03;;;;;;;;;;6164636;28;20019;-84
2022/08/29 18:16:57;;;;;;;15.80;5.43;;;;;;;;;;6137709;28;20019;-84